Texico, Illinois
Current Conditions -  °F | °C
As of 1:15 PM on Friday 21 Nov 2014 (Local Time) from KMVN Reporting Station
Clear Clear  
Wind Chill: 35°   Ceiling: Unl
Heat Index: 41°   Visibility: 10mi
Dew Point: 19°   Wind: 9mph
Humidity: 42%   Direction: 110°ESE
Pressure: 30.39"   Gusts: NA
Location:  38.44°N, 88.9°W
Report Text: KMVN 211915Z AUTO 11008KT 10SM CLR 05/M07 A3039 RMK AO1
Loading
Personal Weather Stations






























Interactive Weather Map New forecast layout! Learn more

10-Day Weather Forecast

Advertisements
Track Severe Weather on mobile